Time;durP1;ratioP1;P1;durP2;ratioP2;P2;SDS_P1;SDS_P2;PMS_P1;PMS_P2;Temp;Humidity;BMP_temperature;BMP_pressure;BME280_temperature;BME280_humidity;BME280_pressure;Samples;Min_cycle;Max_cycle;Signal;HPM_P1;HPM_P2
2021/11/27 00:01:54;;;;;;;13.07;8.23;;;0.00;96.30;;;;;;5011844;28;20928;-79
2021/11/27 00:04:19;;;;;;;9.17;6.93;;;0.10;96.30;;;;;;5012545;28;20214;-79
2021/11/27 00:06:45;;;;;;;10.63;6.43;;;0.10;96.30;;;;;;5011791;28;20405;-79
2021/11/27 00:09:11;;;;;;;8.30;5.97;;;0.20;96.30;;;;;;5011435;28;20255;-79
2021/11/27 00:11:40;;;;;;;13.47;7.77;;;0.20;96.30;;;;;;5011194;28;20193;-78
2021/11/27 00:14:06;;;;;;;9.53;6.50;;;0.10;96.30;;;;;;5014075;28;20618;-78
2021/11/27 00:16:33;;;;;;;11.97;6.10;;;-0.10;96.30;;;;;;5015309;28;20404;-79
2021/11/27 00:18:59;;;;;;;7.63;5.40;;;-0.20;96.30;;;;;;5013887;28;20419;-78
2021/11/27 00:21:26;;;;;;;8.03;5.90;;;-0.20;96.30;;;;;;5013508;28;20434;-78
2021/11/27 00:23:53;;;;;;;8.97;5.17;;;-0.30;96.30;;;;;;5014981;28;20406;-78
2021/11/27 00:26:20;;;;;;;7.83;5.60;;;-0.40;96.30;;;;;;5015258;28;20436;-78
2021/11/27 00:28:46;;;;;;;10.63;5.73;;;-0.50;96.30;;;;;;5013677;28;20835;-78
2021/11/27 00:31:16;;;;;;;9.57;6.17;;;-0.70;96.30;;;;;;5013133;28;20482;-78
2021/11/27 00:33:43;;;;;;;9.00;6.07;;;-0.90;96.30;;;;;;5013680;28;20408;-79
2021/11/27 00:36:09;;;;;;;8.20;4.90;;;-1.00;96.30;;;;;;5013730;28;20416;-78
2021/11/27 00:38:34;;;;;;;8.87;6.00;;;-1.10;96.30;;;;;;5014731;28;20447;-78
2021/11/27 00:41:00;;;;;;;6.70;4.60;;;-1.10;96.30;;;;;;5012726;28;20981;-78
2021/11/27 00:43:26;;;;;;;7.97;5.50;;;-1.20;96.30;;;;;;5013544;28;20223;-78
2021/11/27 00:45:52;;;;;;;12.83;6.40;;;-1.20;96.30;;;;;;5014642;28;20408;-78
2021/11/27 00:48:19;;;;;;;9.70;6.03;;;-1.30;96.30;;;;;;5014662;28;20176;-78
2021/11/27 00:50:50;;;;;;;10.27;5.67;;;-1.30;96.30;;;;;;5014611;28;20184;-78
2021/11/27 00:53:17;;;;;;;9.03;5.27;;;-1.20;96.30;;;;;;5012791;28;20427;-78
2021/11/27 00:55:42;;;;;;;8.97;6.23;;;-1.30;96.30;;;;;;5013627;28;20448;-78
2021/11/27 00:58:09;;;;;;;9.47;6.63;;;-1.30;96.30;;;;;;5014505;28;21023;-78
2021/11/27 05:00:42;;;;;;;15.13;9.57;;;-1.20;96.30;;;;;;6095366;23;20377;31
2021/11/27 05:03:08;;;;;;;14.87;8.00;;;-1.30;96.30;;;;;;4992393;28;20448;-78
2021/11/27 05:05:33;;;;;;;17.03;9.77;;;-1.30;96.30;;;;;;4994755;28;20923;-78
2021/11/27 05:07:59;;;;;;;26.50;9.40;;;-1.20;96.30;;;;;;4993553;28;20181;-78
2021/11/27 05:10:25;;;;;;;13.57;8.90;;;-1.20;96.30;;;;;;4994687;28;20281;-78
2021/11/27 05:12:51;;;;;;;15.73;9.63;;;-1.10;96.30;;;;;;4994259;28;20256;-78
2021/11/27 05:15:22;;;;;;;14.77;8.13;;;-1.20;96.30;;;;;;4995462;28;20496;-77
2021/11/27 05:17:48;;;;;;;11.77;8.10;;;-1.20;96.30;;;;;;4994547;28;20936;-78
2021/11/27 05:20:14;;;;;;;15.60;9.60;;;-1.20;96.30;;;;;;4992086;28;20428;-78
2021/11/27 05:22:40;;;;;;;15.37;8.77;;;-1.10;96.30;;;;;;4998308;28;20500;-78
2021/11/27 05:25:07;;;;;;;16.17;8.60;;;-1.00;96.30;;;;;;4975014;28;20535;-78
2021/11/27 05:27:34;;;;;;;16.00;9.63;;;-1.10;96.30;;;;;;4973797;28;20592;-78
2021/11/27 05:30:00;;;;;;;18.97;11.40;;;-1.00;96.30;;;;;;4989836;28;20432;-78
2021/11/27 05:35:01;;;;;;;16.20;10.40;;;-1.30;96.30;;;;;;4975022;28;20185;-78
2021/11/27 05:37:28;;;;;;;17.10;8.33;;;-1.30;96.30;;;;;;4989518;28;20450;-78
2021/11/27 05:39:54;;;;;;;15.27;10.23;;;-1.20;96.30;;;;;;4989576;28;20236;-79
2021/11/27 05:42:19;;;;;;;16.73;10.50;;;-1.20;96.30;;;;;;4974372;28;20793;-78
2021/11/27 05:44:47;;;;;;;15.70;10.07;;;-1.20;96.30;;;;;;4989621;28;20182;-79
2021/11/27 05:47:13;;;;;;;19.57;10.70;;;-1.30;96.30;;;;;;4974682;28;20237;-79
2021/11/27 05:49:38;;;;;;;15.73;9.07;;;-1.30;96.30;;;;;;4974611;28;20473;-79
2021/11/27 05:52:04;;;;;;;19.53;10.60;;;-1.30;96.30;;;;;;4988903;28;20209;-78
2021/11/27 05:54:30;;;;;;;16.93;11.10;;;-1.20;96.30;;;;;;4974402;28;20186;-78
2021/11/27 05:56:55;;;;;;;13.40;9.00;;;-1.30;96.30;;;;;;4989390;28;20418;-78
2021/11/27 05:59:21;;;;;;;15.97;10.60;;;-1.40;96.30;;;;;;4974586;28;20174;-78
2021/11/27 06:01:46;;;;;;;19.90;11.30;;;-1.40;96.30;;;;;;4989980;28;20214;-78
2021/11/27 06:04:12;;;;;;;13.17;8.63;;;-1.40;96.30;;;;;;4974041;28;20180;-78
2021/11/27 06:06:37;;;;;;;16.47;9.90;;;-1.50;96.30;;;;;;4973007;28;20265;-79
2021/11/27 06:09:03;;;;;;;13.80;9.20;;;-1.60;96.30;;;;;;4972896;28;20178;-78
2021/11/27 06:11:28;;;;;;;17.30;10.20;;;-1.40;96.30;;;;;;4973241;28;20705;-78
2021/11/27 06:13:54;;;;;;;12.40;9.07;;;-1.40;96.30;;;;;;4972550;28;20213;-79
2021/11/27 06:16:20;;;;;;;12.87;9.07;;;-1.50;96.30;;;;;;4974112;28;20182;-79
2021/11/27 06:18:45;;;;;;;16.80;10.07;;;-1.40;96.30;;;;;;4989096;28;20292;-79
2021/11/27 06:21:11;;;;;;;14.53;9.13;;;-1.30;96.30;;;;;;4973969;28;20214;-78
2021/11/27 06:23:37;;;;;;;14.57;10.37;;;-1.10;96.30;;;;;;4972808;28;20273;-79
2021/11/27 06:26:03;;;;;;;14.73;9.37;;;-1.10;96.30;;;;;;4974411;28;20221;-79
2021/11/27 06:28:30;;;;;;;15.10;10.60;;;-1.00;96.30;;;;;;4989146;28;20547;-79
2021/11/27 06:30:55;;;;;;;11.70;7.83;;;-1.00;96.30;;;;;;5012221;28;20882;-78
2021/11/27 06:33:21;;;;;;;18.90;10.63;;;-0.90;96.30;;;;;;5013764;28;20412;-79
2021/11/27 06:35:46;;;;;;;14.07;9.30;;;-0.80;96.30;;;;;;5012973;28;20184;-79
2021/11/27 06:38:12;;;;;;;16.30;9.83;;;-0.70;96.30;;;;;;5013512;28;20208;-79
2021/11/27 06:40:38;;;;;;;15.97;8.90;;;-0.60;96.30;;;;;;5013797;28;20267;-78
2021/11/27 06:43:04;;;;;;;12.53;8.10;;;-0.50;96.30;;;;;;5013718;28;20236;-79
2021/11/27 06:45:30;;;;;;;15.53;10.10;;;-0.40;96.30;;;;;;5013806;28;20173;-79
2021/11/27 06:47:58;;;;;;;11.73;7.80;;;-0.40;96.30;;;;;;5013026;28;20416;-78
2021/11/27 06:50:24;;;;;;;12.43;7.80;;;-0.30;96.30;;;;;;5011373;28;20428;-79
2021/11/27 06:52:50;;;;;;;15.33;9.80;;;-0.20;96.30;;;;;;5011109;28;20416;-79
2021/11/27 06:55:16;;;;;;;13.13;8.20;;;-0.20;96.30;;;;;;5010974;28;20424;-79
2021/11/27 06:57:42;;;;;;;15.77;8.80;;;-0.10;96.30;;;;;;5010689;28;20266;-79
2021/11/27 07:00:09;;;;;;;14.03;9.33;;;-0.10;96.30;;;;;;5010888;28;20428;-79
2021/11/27 07:02:34;;;;;;;15.10;7.00;;;-0.10;96.30;;;;;;5011516;28;20185;-79
2021/11/27 07:05:00;;;;;;;13.30;8.30;;;0.00;96.30;;;;;;5005996;28;20759;-79
2021/11/27 07:07:25;;;;;;;13.50;9.40;;;0.10;96.30;;;;;;4979636;28;20252;-78
2021/11/27 07:09:52;;;;;;;13.20;8.90;;;0.10;96.30;;;;;;4983139;28;20631;-79
2021/11/27 07:12:17;;;;;;;15.80;8.97;;;0.10;96.30;;;;;;4980635;28;20219;-78
2021/11/27 07:14:43;;;;;;;13.70;10.17;;;0.10;96.30;;;;;;4979846;28;20508;-79
2021/11/27 07:17:08;;;;;;;12.60;9.60;;;0.20;96.30;;;;;;4983149;28;20288;-79
2021/11/27 07:19:34;;;;;;;12.27;8.13;;;0.30;96.30;;;;;;4978764;28;20716;-79
2021/11/27 07:22:01;;;;;;;18.23;11.50;;;0.30;96.30;;;;;;4982668;28;20198;-79
2021/11/27 07:24:27;;;;;;;16.60;10.53;;;0.20;96.30;;;;;;4984430;28;20174;-79
2021/11/27 07:26:52;;;;;;;17.60;11.40;;;0.20;96.30;;;;;;4983326;28;20798;-79
2021/11/27 07:29:18;;;;;;;20.47;12.00;;;0.10;96.30;;;;;;4986562;28;20903;-79
2021/11/27 07:31:44;;;;;;;17.57;12.10;;;0.10;96.30;;;;;;4983011;28;20221;-79
2021/11/27 07:34:10;;;;;;;14.37;10.60;;;0.00;96.30;;;;;;4983368;28;20181;-79
2021/11/27 07:36:36;;;;;;;14.27;9.40;;;0.00;96.30;;;;;;4985068;28;20413;-78
2021/11/27 07:39:04;;;;;;;14.00;9.80;;;0.10;96.30;;;;;;4984475;28;20220;-78
2021/11/27 07:41:29;;;;;;;15.07;10.70;;;0.10;96.30;;;;;;4983508;28;20457;-79
2021/11/27 07:43:55;;;;;;;16.30;11.13;;;0.10;96.30;;;;;;4982790;28;20553;-79
2021/11/27 07:46:20;;;;;;;22.60;12.57;;;0.10;96.30;;;;;;4984889;28;20549;-78
2021/11/27 07:48:46;;;;;;;17.87;11.77;;;0.10;96.30;;;;;;4986589;28;20188;-78
2021/11/27 07:51:11;;;;;;;16.17;9.23;;;0.10;96.30;;;;;;4979433;28;20348;-79
2021/11/27 07:53:37;;;;;;;16.90;11.20;;;0.10;96.30;;;;;;4975227;28;20665;-79
2021/11/27 07:56:04;;;;;;;14.57;9.70;;;0.10;96.30;;;;;;4976535;28;20186;-78
2021/11/27 07:58:30;;;;;;;21.40;14.07;;;0.20;96.30;;;;;;4976116;28;20455;-74
2021/11/27 08:00:56;;;;;;;19.03;12.07;;;0.30;96.30;;;;;;4977605;28;20540;-76
2021/11/27 08:03:21;;;;;;;16.60;11.13;;;0.30;96.30;;;;;;4977849;28;20254;-76
2021/11/27 08:05:47;;;;;;;18.70;11.73;;;0.30;96.30;;;;;;4975739;28;20178;-76
2021/11/27 08:08:13;;;;;;;13.37;9.87;;;0.30;96.30;;;;;;4976127;28;20653;-76
2021/11/27 08:10:38;;;;;;;14.53;8.53;;;0.40;96.30;;;;;;4976878;28;20198;-76
2021/11/27 08:13:03;;;;;;;14.00;9.87;;;0.50;96.30;;;;;;4975340;28;20626;-77
2021/11/27 08:15:29;;;;;;;15.30;9.60;;;0.60;96.30;;;;;;4988283;28;20185;-76
2021/11/27 08:17:55;;;;;;;11.03;8.77;;;0.70;96.30;;;;;;4994567;28;20193;-77
2021/11/27 08:20:21;;;;;;;17.20;10.80;;;0.70;96.30;;;;;;4983545;28;20175;-76
2021/11/27 08:22:46;;;;;;;17.30;10.77;;;0.80;96.30;;;;;;4974965;28;20221;-77
2021/11/27 08:25:13;;;;;;;24.90;15.50;;;0.90;96.30;;;;;;4977428;28;20167;-78
2021/11/27 08:27:38;;;;;;;14.00;9.83;;;0.90;96.30;;;;;;4975893;28;20229;-77
2021/11/27 08:30:06;;;;;;;13.87;10.27;;;0.90;96.30;;;;;;4975017;28;20436;-78
2021/11/27 08:32:32;;;;;;;16.20;10.33;;;1.00;96.30;;;;;;4991905;28;20201;-77
2021/11/27 08:34:58;;;;;;;15.00;10.60;;;1.00;96.30;;;;;;4994212;28;20421;-78
2021/11/27 08:37:24;;;;;;;14.90;10.97;;;1.10;96.30;;;;;;4994002;28;20201;-78
2021/11/27 08:39:50;;;;;;;14.03;9.63;;;1.10;96.30;;;;;;4993998;28;20417;-76
2021/11/27 08:42:17;;;;;;;16.57;9.33;;;1.20;96.30;;;;;;4994498;28;20503;-76
2021/11/27 08:44:43;;;;;;;11.70;6.97;;;1.20;96.30;;;;;;4994089;28;20174;-76
2021/11/27 08:47:09;;;;;;;14.33;8.70;;;1.20;96.30;;;;;;4994949;28;20416;-75
2021/11/27 08:49:35;;;;;;;12.30;7.47;;;1.30;96.30;;;;;;4995504;28;20165;-77
2021/11/27 08:52:01;;;;;;;11.73;8.23;;;1.20;96.30;;;;;;4993458;28;20190;-77
2021/11/27 08:54:26;;;;;;;11.00;6.70;;;1.30;96.30;;;;;;4994001;28;20460;-77
2021/11/27 08:56:52;;;;;;;12.77;9.07;;;1.30;96.30;;;;;;4993609;28;20174;-77
2021/11/27 08:59:18;;;;;;;16.90;8.77;;;1.20;96.30;;;;;;4988995;28;20637;-77
2021/11/27 09:01:43;;;;;;;14.63;9.10;;;1.30;96.30;;;;;;4990776;28;20742;-79
2021/11/27 09:04:09;;;;;;;16.23;11.20;;;1.30;96.30;;;;;;4985696;28;20209;-77
2021/11/27 09:06:35;;;;;;;11.63;9.77;;;1.20;96.30;;;;;;4980387;28;20182;-78
2021/11/27 09:09:00;;;;;;;14.80;10.87;;;1.10;96.30;;;;;;4988662;28;20174;-77
2021/11/27 09:11:28;;;;;;;14.87;9.30;;;1.10;96.30;;;;;;4994298;28;20653;-77
2021/11/27 09:13:54;;;;;;;13.57;10.90;;;1.10;96.30;;;;;;4974845;28;20201;-76
2021/11/27 09:16:20;;;;;;;17.90;11.93;;;1.00;96.30;;;;;;4994567;28;20428;-76
2021/11/27 09:18:45;;;;;;;15.30;10.80;;;1.00;96.30;;;;;;4994526;28;20968;-76
2021/11/27 09:21:12;;;;;;;19.23;12.50;;;1.00;96.30;;;;;;4992651;28;20680;-76
2021/11/27 09:23:38;;;;;;;21.70;13.47;;;1.00;96.30;;;;;;4993291;28;20174;-76
2021/11/27 09:26:04;;;;;;;20.27;12.57;;;1.00;96.30;;;;;;4994568;28;20496;-76
2021/11/27 09:28:29;;;;;;;22.73;14.83;;;1.00;96.30;;;;;;4993032;28;20456;-76
2021/11/27 09:30:55;;;;;;;16.73;12.40;;;1.00;96.30;;;;;;4987325;28;20322;-77
2021/11/27 09:33:21;;;;;;;19.07;12.60;;;1.00;96.30;;;;;;4982376;28;20183;-76
2021/11/27 09:35:56;;;;;;;18.70;12.53;;;1.00;96.30;;;;;;4985133;28;20229;-76
2021/11/27 09:38:22;;;;;;;17.93;11.87;;;1.00;96.30;;;;;;4973563;28;20233;-75
2021/11/27 09:40:51;;;;;;;22.17;14.10;;;1.00;96.30;;;;;;4974811;28;20453;-76
2021/11/27 09:43:18;;;;;;;29.33;18.20;;;1.10;96.30;;;;;;4974231;28;20174;-76
2021/11/27 09:45:43;;;;;;;21.47;12.83;;;1.20;96.30;;;;;;4972919;28;20421;-77
2021/11/27 09:48:10;;;;;;;21.40;12.83;;;1.30;96.30;;;;;;4992190;28;20496;-76
2021/11/27 09:50:36;;;;;;;30.40;16.63;;;1.40;96.30;;;;;;4993710;28;20181;-76
2021/11/27 09:53:02;;;;;;;33.07;20.03;;;1.60;96.30;;;;;;4993236;28;20421;-77
2021/11/27 09:55:27;;;;;;;17.67;9.53;;;1.60;96.30;;;;;;4993821;28;20463;-76
2021/11/27 09:57:53;;;;;;;15.83;8.50;;;1.70;96.30;;;;;;4992379;28;20202;-76
2021/11/27 10:00:20;;;;;;;12.73;7.23;;;1.70;96.30;;;;;;4993721;28;20228;-77
2021/11/27 10:02:48;;;;;;;13.87;9.67;;;1.70;96.30;;;;;;4993211;28;20186;-76
2021/11/27 10:05:14;;;;;;;14.07;9.97;;;1.70;96.30;;;;;;4993696;28;20397;-76
2021/11/27 10:07:41;;;;;;;17.87;11.37;;;1.60;96.30;;;;;;5000565;28;20408;-76
2021/11/27 10:10:08;;;;;;;11.17;8.87;;;1.60;96.30;;;;;;5013243;28;20426;-77
2021/11/27 10:12:34;;;;;;;18.60;10.53;;;1.60;96.30;;;;;;5010959;28;20859;-76
2021/11/27 10:15:00;;;;;;;11.90;9.00;;;1.50;96.30;;;;;;5001299;28;20413;-77
2021/11/27 10:17:30;;;;;;;16.17;10.40;;;1.60;96.30;;;;;;4992324;28;20987;-76
2021/11/27 10:19:59;;;;;;;13.90;9.57;;;1.60;96.30;;;;;;4993287;28;20405;-76
2021/11/27 10:22:51;;;;;;;15.53;10.37;;;1.60;96.30;;;;;;4987714;28;20899;-76
2021/11/27 10:25:37;;;;;;;17.20;10.83;;;1.60;96.30;;;;;;4988126;28;20803;-76
2021/11/27 10:28:18;;;;;;;14.70;9.50;;;1.70;96.30;;;;;;4980625;28;20467;-76
2021/11/27 10:31:02;;;;;;;11.20;8.57;;;1.80;96.30;;;;;;4993094;28;20452;-76
2021/11/27 10:33:30;;;;;;;11.40;7.83;;;1.80;96.30;;;;;;4993373;28;20407;-76
2021/11/27 10:36:05;;;;;;;10.47;7.70;;;2.00;96.30;;;;;;4992039;28;20412;-75
2021/11/27 10:38:46;;;;;;;14.80;9.13;;;2.10;96.30;;;;;;4993253;28;20452;-76
2021/11/27 10:41:15;;;;;;;12.83;7.90;;;2.00;96.30;;;;;;4990913;28;20470;-75
2021/11/27 10:44:03;;;;;;;7.23;6.07;;;2.10;96.30;;;;;;4992440;28;20417;-75
2021/11/27 10:46:31;;;;;;;6.63;4.80;;;2.20;96.30;;;;;;4989799;28;20412;-76
2021/11/27 10:48:57;;;;;;;12.40;5.13;;;2.30;96.30;;;;;;4987255;28;20422;-76
2021/11/27 10:51:23;;;;;;;9.10;5.47;;;2.40;96.30;;;;;;4987180;28;20830;-77
2021/11/27 10:54:00;;;;;;;8.03;5.37;;;2.50;96.30;;;;;;4988998;28;20421;-78
2021/11/27 10:56:45;;;;;;;13.43;5.17;;;2.50;96.30;;;;;;4981860;28;20256;-78
2021/11/27 10:59:12;;;;;;;8.90;5.30;;;2.60;96.30;;;;;;4973265;28;20798;-77
2021/11/27 11:02:01;;;;;;;6.77;5.00;;;2.70;96.30;;;;;;4985845;28;20455;-76
2021/11/27 11:04:27;;;;;;;9.00;5.30;;;2.80;96.30;;;;;;4988584;28;20412;-77
2021/11/27 11:07:12;;;;;;;7.13;5.43;;;2.80;96.30;;;;;;4992717;28;20420;-77
2021/11/27 11:09:58;;;;;;;10.47;5.37;;;2.90;96.30;;;;;;4992908;28;20412;-77
2021/11/27 11:12:32;;;;;;;13.53;4.17;;;2.90;96.30;;;;;;4992027;28;20432;-76
2021/11/27 11:15:31;;;;;;;7.13;4.50;;;2.90;96.30;;;;;;4992736;28;20404;-78
2021/11/27 11:18:10;;;;;;;6.40;4.27;;;2.90;96.30;;;;;;4980913;28;21097;-77
2021/11/27 11:20:44;;;;;;;7.03;4.53;;;3.00;96.30;;;;;;4993112;28;20393;-78
2021/11/27 11:23:16;;;;;;;8.03;5.10;;;3.00;96.30;;;;;;4990803;28;20459;-78
2021/11/27 11:25:54;;;;;;;6.77;4.60;;;3.00;96.30;;;;;;4991578;28;20416;-78
2021/11/27 11:28:21;;;;;;;6.07;4.40;;;3.00;96.30;;;;;;4992470;28;20409;-76
2021/11/27 11:30:48;;;;;;;9.23;6.17;;;3.00;96.30;;;;;;4992739;28;20433;-79
2021/11/27 11:33:15;;;;;;;9.33;5.40;;;3.00;96.30;;;;;;4991535;28;20444;-78
2021/11/27 11:35:41;;;;;;;12.10;6.60;;;3.00;96.30;;;;;;4992891;28;20923;-77
2021/11/27 11:38:11;;;;;;;7.07;4.40;;;3.00;96.30;;;;;;4992345;28;20551;-78
2021/11/27 11:40:38;;;;;;;6.07;5.20;;;3.10;96.30;;;;;;4991156;28;20424;-78
2021/11/27 11:43:04;;;;;;;6.13;4.47;;;3.30;96.30;;;;;;4991892;28;20808;-77
2021/11/27 11:45:30;;;;;;;7.60;4.87;;;3.50;96.30;;;;;;4992293;28;20415;-77
2021/11/27 11:47:57;;;;;;;9.90;5.60;;;3.60;96.30;;;;;;4992415;28;20782;-77
2021/11/27 11:50:24;;;;;;;9.00;4.97;;;3.60;96.30;;;;;;4992526;28;20177;-78
2021/11/27 11:53:05;;;;;;;8.03;5.83;;;3.60;96.30;;;;;;4982501;28;20801;-77
2021/11/27 11:55:31;;;;;;;7.97;4.90;;;3.60;96.30;;;;;;4983321;28;20410;-78
2021/11/27 11:58:01;;;;;;;15.57;7.70;;;3.40;96.30;;;;;;4974953;28;20444;-79
2021/11/27 12:00:30;;;;;;;12.03;6.27;;;3.30;96.30;;;;;;4993342;28;20423;-80
2021/11/27 12:03:09;;;;;;;16.10;9.70;;;3.40;96.30;;;;;;4980538;28;20500;-78
2021/11/27 12:05:36;;;;;;;11.80;8.63;;;3.40;96.30;;;;;;4973960;28;20763;-80
2021/11/27 12:08:04;;;;;;;9.00;5.70;;;3.30;96.30;;;;;;4979789;28;20856;-80
2021/11/27 12:10:38;;;;;;;7.53;5.10;;;3.30;96.30;;;;;;4989468;28;20420;-80
2021/11/27 12:13:09;;;;;;;6.77;4.80;;;3.30;96.30;;;;;;4997562;28;20450;-79
2021/11/27 12:15:41;;;;;;;7.70;5.33;;;3.30;96.30;;;;;;4995786;28;20429;-80
2021/11/27 12:18:18;;;;;;;10.20;6.10;;;3.20;96.30;;;;;;4980074;28;20547;-79
2021/11/27 12:20:46;;;;;;;7.93;4.77;;;3.30;96.30;;;;;;4995721;28;21023;-79
2021/11/27 12:23:27;;;;;;;7.80;5.30;;;3.50;96.30;;;;;;4986830;28;20444;-79
2021/11/27 12:26:09;;;;;;;6.90;4.30;;;3.70;96.30;;;;;;4984399;28;20481;-79
2021/11/27 12:28:38;;;;;;;8.80;5.50;;;3.80;96.30;;;;;;4994780;28;21151;-78
2021/11/27 12:31:18;;;;;;;6.23;5.00;;;4.10;96.30;;;;;;4992326;28;20451;-79
2021/11/27 12:34:04;;;;;;;6.30;4.00;;;4.40;96.30;;;;;;4975053;28;20422;-77
2021/11/27 12:36:30;;;;;;;6.60;5.27;;;4.50;96.30;;;;;;4982654;28;20509;-79
2021/11/27 12:39:05;;;;;;;6.97;4.93;;;4.70;96.30;;;;;;4980874;28;20463;-79
2021/11/27 12:41:51;;;;;;;9.40;6.13;;;4.60;96.30;;;;;;4988166;28;20424;-79
2021/11/27 12:44:18;;;;;;;11.93;7.90;;;4.60;96.30;;;;;;4994623;28;20413;-80
2021/11/27 12:46:57;;;;;;;13.07;8.43;;;4.20;96.30;;;;;;4991308;28;20481;-79
2021/11/27 12:49:32;;;;;;;8.73;5.63;;;4.10;96.30;;;;;;4976285;28;20512;-78
2021/11/27 12:52:16;;;;;;;9.67;6.70;;;3.80;96.30;;;;;;4974828;28;20445;-76
2021/11/27 12:54:56;;;;;;;10.93;6.20;;;3.50;96.30;;;;;;4976569;28;20421;-79
2021/11/27 12:57:26;;;;;;;9.70;6.73;;;3.40;96.30;;;;;;4976114;28;20409;-79
2021/11/27 13:00:22;;;;;;;16.50;10.63;;;3.40;96.30;;;;;;4977075;28;20406;-79
2021/11/27 13:03:00;;;;;;;16.83;9.73;;;3.30;96.30;;;;;;4973513;28;20822;-77
2021/11/27 13:05:31;;;;;;;9.87;5.93;;;3.40;96.30;;;;;;4975759;28;20408;-77
2021/11/27 13:07:59;;;;;;;61.93;30.03;;;3.50;96.30;;;;;;4976513;28;20421;-78
2021/11/27 13:10:33;;;;;;;23.23;13.33;;;3.50;96.30;;;;;;4979232;28;20965;-77
2021/11/27 13:13:04;;;;;;;7.97;6.67;;;3.50;96.30;;;;;;4992708;28;20431;-78
2021/11/27 13:15:30;;;;;;;8.47;6.13;;;3.50;96.30;;;;;;4990538;28;20440;-76
2021/11/27 13:18:19;;;;;;;5.50;3.73;;;3.70;96.30;;;;;;4986556;28;20480;-76
2021/11/27 13:20:59;;;;;;;6.60;4.10;;;3.80;96.30;;;;;;4982009;28;20302;-76
2021/11/27 13:23:28;;;;;;;5.27;3.40;;;3.70;96.30;;;;;;4991577;28;20429;-76
2021/11/27 13:25:55;;;;;;;3.63;2.80;;;3.70;96.30;;;;;;4994432;28;20427;-77
2021/11/27 13:28:33;;;;;;;4.53;4.07;;;3.60;96.30;;;;;;4994329;28;20420;-77
2021/11/27 13:31:02;;;;;;;5.17;3.70;;;3.70;96.30;;;;;;4992443;28;20535;-77
2021/11/27 13:34:08;;;;;;;4.70;3.80;;;3.80;96.30;;;;;;4994274;28;20751;-77
2021/11/27 13:36:35;;;;;;;4.13;3.10;;;3.80;96.30;;;;;;4994318;28;20416;-77
2021/11/27 13:39:12;;;;;;;7.00;2.60;;;3.70;96.30;;;;;;4994189;28;20947;-78
2021/11/27 13:41:39;;;;;;;3.07;2.53;;;3.50;96.30;;;;;;4993463;28;20432;-77
2021/11/27 13:44:05;;;;;;;7.27;4.53;;;3.50;96.30;;;;;;4992768;28;20837;-77
2021/11/27 13:46:31;;;;;;;6.37;5.00;;;3.70;96.30;;;;;;4994033;28;20428;-77
2021/11/27 13:49:04;;;;;;;3.57;2.60;;;3.70;96.30;;;;;;4994151;28;20413;-77
2021/11/27 13:51:29;;;;;;;4.10;2.77;;;3.70;96.30;;;;;;4993451;28;20224;-77
2021/11/27 13:53:55;;;;;;;3.00;2.33;;;3.70;96.30;;;;;;4986494;28;20818;-77
2021/11/27 13:56:21;;;;;;;2.93;2.53;;;3.60;96.30;;;;;;4974422;28;20212;-77
2021/11/27 13:58:54;;;;;;;3.30;2.80;;;3.60;96.30;;;;;;4974303;28;20201;-78
2021/11/27 14:01:19;;;;;;;3.27;2.67;;;3.60;96.30;;;;;;4973120;28;20304;-78
2021/11/27 14:03:45;;;;;;;3.50;2.40;;;3.70;96.30;;;;;;4975170;28;20442;-75
2021/11/27 14:06:13;;;;;;;4.33;3.20;;;3.70;96.30;;;;;;4973474;28;20181;-76
2021/11/27 14:08:50;;;;;;;4.63;2.53;;;3.70;96.30;;;;;;4973451;28;20535;-76
2021/11/27 14:11:16;;;;;;;12.47;8.87;;;3.70;96.30;;;;;;4984368;28;20960;-77
2021/11/27 14:13:58;;;;;;;3.37;2.50;;;3.60;96.30;;;;;;4993288;28;20409;-76
2021/11/27 14:16:25;;;;;;;7.17;5.10;;;3.30;96.30;;;;;;4993502;28;20162;-75
2021/11/27 14:19:05;;;;;;;7.13;6.37;;;3.30;96.30;;;;;;4993287;28;20467;-76
2021/11/27 14:21:30;;;;;;;2.93;2.17;;;3.30;96.30;;;;;;4976257;28;20975;-76
2021/11/27 14:23:56;;;;;;;2.70;2.50;;;3.30;96.30;;;;;;4973868;28;20421;-76
2021/11/27 14:26:25;;;;;;;2.30;2.07;;;3.30;96.30;;;;;;4979053;28;20596;-76
2021/11/27 14:28:52;;;;;;;3.50;2.40;;;3.20;96.30;;;;;;4987080;28;20163;-75
2021/11/27 14:31:24;;;;;;;2.60;2.07;;;3.10;96.30;;;;;;4986753;28;20433;-75
2021/11/27 14:34:06;;;;;;;2.17;1.97;;;3.00;96.30;;;;;;4977829;28;20528;-76
2021/11/27 14:36:37;;;;;;;4.30;3.20;;;2.90;96.30;;;;;;4991543;28;20466;-77
2021/11/27 14:39:09;;;;;;;2.33;2.10;;;2.90;96.30;;;;;;4989266;28;20463;-77
2021/11/27 14:41:35;;;;;;;5.03;3.80;;;2.80;96.30;;;;;;4978270;28;20504;-78
2021/11/27 14:44:04;;;;;;;3.90;2.80;;;2.80;96.30;;;;;;4984113;28;20416;-78
2021/11/27 14:46:51;;;;;;;3.53;3.00;;;2.80;96.30;;;;;;4990125;28;21177;-78
2021/11/27 14:49:27;;;;;;;3.50;2.90;;;2.70;96.30;;;;;;4989053;28;20951;-77
2021/11/27 14:52:05;;;;;;;3.43;2.80;;;2.60;96.30;;;;;;4991073;28;20516;-78
2021/11/27 14:54:42;;;;;;;5.37;2.77;;;2.70;96.30;;;;;;4989176;28;20499;-75
2021/11/27 14:57:13;;;;;;;4.43;4.00;;;2.50;96.30;;;;;;4992474;28;20397;-78
2021/11/27 15:00:00;;;;;;;4.60;3.40;;;2.50;96.30;;;;;;4982210;28;20774;-76
2021/11/27 15:02:29;;;;;;;4.13;3.00;;;2.50;96.30;;;;;;4977607;28;20984;-77
2021/11/27 15:04:55;;;;;;;3.87;2.80;;;2.30;96.30;;;;;;4975856;28;20449;-76
2021/11/27 15:07:22;;;;;;;4.43;3.30;;;2.30;96.30;;;;;;4975261;28;20421;-76
2021/11/27 15:09:48;;;;;;;4.10;3.10;;;2.20;96.30;;;;;;4982889;28;20406;-75
2021/11/27 15:12:15;;;;;;;5.60;3.80;;;2.10;96.30;;;;;;4972533;28;20528;-76
2021/11/27 15:14:41;;;;;;;3.20;2.90;;;2.00;96.30;;;;;;4973282;28;20406;-76
2021/11/27 15:17:08;;;;;;;3.90;3.00;;;2.10;96.30;;;;;;4972813;28;20410;-75
2021/11/27 15:19:35;;;;;;;2.60;2.40;;;2.10;96.30;;;;;;4973138;28;20410;-77
2021/11/27 15:22:01;;;;;;;4.93;4.20;;;2.20;96.30;;;;;;4972395;28;20426;-76
2021/11/27 15:24:26;;;;;;;4.87;3.63;;;2.20;96.30;;;;;;4975095;28;20406;-76
2021/11/27 15:26:52;;;;;;;11.43;6.70;;;2.10;96.30;;;;;;4972963;28;20402;-76
2021/11/27 15:29:19;;;;;;;5.80;4.70;;;2.00;96.30;;;;;;5001466;28;20203;-76
2021/11/27 15:31:45;;;;;;;7.17;4.73;;;2.00;96.30;;;;;;5000197;28;20256;-75
2021/11/27 15:34:11;;;;;;;3.70;3.13;;;2.00;96.30;;;;;;4992381;28;20500;-76
2021/11/27 15:36:40;;;;;;;4.23;3.33;;;1.80;96.30;;;;;;4992248;28;20444;-76
2021/11/27 15:39:06;;;;;;;4.87;3.20;;;1.90;96.30;;;;;;4991893;28;20445;-76
2021/11/27 15:41:32;;;;;;;2.83;2.50;;;1.80;96.30;;;;;;4985986;28;20539;-78
2021/11/27 15:43:57;;;;;;;4.27;3.00;;;1.80;96.30;;;;;;4993983;28;21123;-77
2021/11/27 15:46:23;;;;;;;5.17;3.70;;;1.80;96.30;;;;;;4993892;28;20428;-76
2021/11/27 15:48:50;;;;;;;3.27;2.90;;;2.00;96.30;;;;;;4993932;28;20173;-77
2021/11/27 15:51:15;;;;;;;3.87;3.30;;;2.10;96.30;;;;;;4993179;28;20208;-76
2021/11/27 15:53:41;;;;;;;6.17;4.37;;;2.20;96.30;;;;;;4974695;28;20425;-77
2021/11/27 15:56:08;;;;;;;5.43;4.67;;;2.20;96.30;;;;;;4975912;28;20182;-76
2021/11/27 15:58:34;;;;;;;7.53;4.23;;;2.10;96.30;;;;;;4975435;28;20682;-77
2021/11/27 16:01:02;;;;;;;3.97;3.40;;;2.20;96.30;;;;;;4974780;28;20449;-77
2021/11/27 16:03:28;;;;;;;6.87;5.10;;;2.30;96.30;;;;;;4975605;28;20170;-77
2021/11/27 16:05:54;;;;;;;43.70;30.83;;;2.30;96.30;;;;;;4974472;28;20528;-77
2021/11/27 16:08:23;;;;;;;8.03;6.80;;;2.40;96.30;;;;;;4975136;28;20925;-76
2021/11/27 16:10:50;;;;;;;3.43;3.03;;;2.30;96.30;;;;;;4975626;28;20190;-77
2021/11/27 16:13:16;;;;;;;5.00;4.40;;;2.40;96.30;;;;;;4973725;28;20504;-77
2021/11/27 16:15:47;;;;;;;3.97;3.33;;;2.40;96.30;;;;;;4975676;28;20512;-77
2021/11/27 16:18:12;;;;;;;8.37;4.80;;;2.40;96.30;;;;;;4975227;28;20190;-77
2021/11/27 16:20:40;;;;;;;10.33;7.00;;;2.30;96.30;;;;;;4974121;28;20428;-77
2021/11/27 16:23:06;;;;;;;14.60;7.60;;;2.30;96.30;;;;;;4974518;28;20175;-77
2021/11/27 16:25:31;;;;;;;7.60;5.17;;;2.30;96.30;;;;;;4981486;28;20428;-77
2021/11/27 16:27:56;;;;;;;7.00;5.33;;;2.20;96.30;;;;;;4994941;28;20688;-77
2021/11/27 16:30:22;;;;;;;6.80;4.93;;;2.30;96.30;;;;;;4994411;28;20185;-77
2021/11/27 16:32:47;;;;;;;12.40;6.90;;;2.40;96.30;;;;;;4994177;28;20173;-77
2021/11/27 16:35:13;;;;;;;6.13;3.97;;;2.40;96.30;;;;;;4994241;28;20266;-76
2021/11/27 16:37:38;;;;;;;5.97;4.40;;;2.30;96.30;;;;;;4993351;28;20205;-77
2021/11/27 16:40:05;;;;;;;9.30;6.20;;;2.30;96.30;;;;;;4994108;28;20184;-77
2021/11/27 16:42:32;;;;;;;11.17;5.93;;;2.30;96.30;;;;;;4993676;28;20201;-76
2021/11/27 16:44:58;;;;;;;9.97;7.07;;;2.30;96.30;;;;;;4994261;28;20492;-77
2021/11/27 16:47:24;;;;;;;26.17;16.70;;;2.30;96.30;;;;;;4993891;28;20504;-76
2021/11/27 16:49:49;;;;;;;22.20;12.43;;;2.30;96.30;;;;;;4994281;28;20435;-77
2021/11/27 16:52:15;;;;;;;15.20;9.60;;;2.20;96.30;;;;;;4993402;28;20193;-77
2021/11/27 16:54:40;;;;;;;19.37;10.80;;;2.20;96.30;;;;;;4977682;28;20183;-77
2021/11/27 16:57:05;;;;;;;16.30;10.00;;;2.20;96.30;;;;;;4974786;28;20253;-77
2021/11/27 16:59:31;;;;;;;14.70;9.50;;;2.10;96.30;;;;;;4974227;28;20194;-77